createdAt,value
2023-04-29T00:01:21.557Z,1.30
2023-04-29T00:03:48.441Z,1.10
2023-04-29T00:06:16.009Z,1.08
2023-04-29T00:08:42.921Z,1.17
2023-04-29T00:11:10.983Z,1.60
2023-04-29T00:13:40.898Z,1.40
2023-04-29T00:16:09.106Z,1.42
2023-04-29T00:18:37.639Z,1.17
2023-04-29T00:21:07.172Z,1.10
2023-04-29T00:23:34.468Z,1.50
2023-04-29T00:26:01.240Z,1.63
2023-04-29T00:28:28.050Z,1.30
2023-04-29T00:30:56.115Z,1.27
2023-04-29T00:33:23.034Z,1.48
2023-04-29T00:35:49.966Z,1.65
2023-04-29T00:38:16.863Z,1.30
2023-04-29T00:40:44.247Z,1.40
2023-04-29T00:43:10.874Z,0.98
2023-04-29T00:45:37.522Z,1.20
2023-04-29T00:48:04.575Z,1.20
2023-04-29T00:50:32.181Z,1.20
2023-04-29T00:52:59.700Z,1.33
2023-04-29T00:55:27.152Z,1.40
2023-04-29T00:57:54.015Z,1.40
2023-04-29T01:00:20.785Z,1.30
2023-04-29T01:02:49.502Z,1.35
2023-04-29T01:05:16.275Z,1.02
2023-04-29T01:08:18.640Z,1.38
2023-04-29T01:10:54.532Z,1.20
2023-04-29T01:13:33.977Z,1.17
2023-04-29T01:16:05.138Z,1.63
2023-04-29T01:18:43.652Z,1.20
2023-04-29T01:21:11.332Z,1.50
2023-04-29T01:23:37.940Z,1.10
2023-04-29T01:26:05.933Z,1.73
2023-04-29T01:28:57.193Z,1.73
2023-04-29T01:31:46.901Z,2.00
2023-04-29T01:34:19.414Z,1.45
2023-04-29T01:37:17.478Z,1.20
2023-04-29T01:40:16.241Z,1.60
2023-04-29T01:43:03.238Z,1.70
2023-04-29T01:45:34.463Z,1.60
2023-04-29T01:48:03.079Z,1.60
2023-04-29T01:50:30.974Z,1.73
2023-04-29T01:53:05.764Z,1.50
2023-04-29T01:55:32.654Z,1.60
2023-04-29T01:58:31.266Z,1.42
2023-04-29T02:01:27.616Z,2.05
2023-04-29T02:03:54.579Z,1.75
2023-04-29T02:06:21.476Z,1.98
2023-04-29T02:11:50.847Z,1.50
2023-04-29T02:14:17.860Z,2.63
2023-04-29T02:16:45.612Z,1.60
2023-04-29T02:19:13.775Z,1.52
2023-04-29T02:21:40.420Z,1.70
2023-04-29T02:24:07.221Z,2.22
2023-04-29T02:26:34.508Z,1.85
2023-04-29T02:29:01.693Z,1.75
2023-04-29T02:31:29.252Z,2.13
2023-04-29T02:33:56.139Z,2.67
2023-04-29T02:36:22.782Z,2.35
2023-04-29T02:38:54.059Z,1.88
2023-04-29T02:41:21.040Z,1.80
2023-04-29T02:43:50.829Z,2.17
2023-04-29T02:46:18.977Z,1.98
2023-04-29T02:48:45.712Z,2.10
2023-04-29T02:51:14.519Z,2.92
2023-04-29T02:53:41.200Z,2.30
2023-04-29T02:56:07.952Z,2.10
2023-04-29T02:58:34.636Z,2.20
2023-04-29T03:01:01.393Z,2.20
2023-04-29T03:03:28.309Z,2.00
2023-04-29T03:05:55.125Z,1.98
2023-04-29T03:08:22.234Z,1.70
2023-04-29T03:10:49.012Z,2.30
2023-04-29T03:13:16.055Z,1.67
2023-04-29T03:15:44.348Z,1.90
2023-04-29T03:18:11.166Z,2.17
2023-04-29T03:20:37.904Z,2.28
2023-04-29T03:23:05.355Z,2.50
2023-04-29T03:25:32.026Z,2.30
2023-04-29T03:27:58.751Z,1.92
2023-04-29T03:30:25.510Z,2.05
2023-04-29T03:32:55.641Z,2.30
2023-04-29T03:35:22.423Z,2.20
2023-04-29T03:38:07.383Z,2.33
2023-04-29T03:40:35.465Z,1.73
2023-04-29T03:43:02.148Z,2.03
2023-04-29T03:45:29.117Z,2.20
2023-04-29T03:47:56.032Z,2.92
2023-04-29T03:50:23.830Z,2.95
2023-04-29T03:52:50.572Z,2.60
2023-04-29T03:55:18.944Z,2.65
2023-04-29T03:57:45.836Z,2.42
2023-04-29T04:00:14.585Z,2.67
2023-04-29T04:02:45.266Z,2.92
2023-04-29T04:05:13.365Z,2.80
2023-04-29T04:07:43.597Z,2.33
2023-04-29T04:10:31.570Z,2.43
2023-04-29T04:13:00.560Z,2.42
2023-04-29T04:15:27.130Z,1.80
2023-04-29T04:17:53.937Z,2.17
2023-04-29T04:20:20.727Z,2.28
2023-04-29T04:22:49.196Z,1.77
2023-04-29T04:25:25.519Z,2.72
2023-04-29T04:27:54.741Z,2.00
2023-04-29T04:30:41.708Z,2.08
2023-04-29T04:33:08.535Z,1.80
2023-04-29T04:35:37.080Z,1.90
2023-04-29T04:38:03.814Z,1.92
2023-04-29T04:40:30.566Z,2.00
2023-04-29T04:43:13.445Z,1.70
2023-04-29T04:45:42.046Z,1.77
2023-04-29T04:48:08.961Z,1.70
2023-04-29T04:50:38.340Z,1.73
2023-04-29T04:53:05.124Z,2.05
2023-04-29T04:55:50.327Z,1.90
2023-04-29T04:58:17.822Z,1.67
2023-04-29T05:00:45.725Z,1.65
2023-04-29T05:03:12.788Z,1.85
2023-04-29T05:05:39.638Z,1.90
2023-04-29T05:08:06.548Z,1.50
2023-04-29T05:10:39.262Z,2.00
2023-04-29T05:13:07.058Z,2.00
2023-04-29T05:15:35.336Z,1.65
2023-04-29T05:18:03.089Z,1.50
2023-04-29T05:20:30.952Z,1.65
2023-04-29T05:23:00.099Z,1.58
2023-04-29T05:25:27.737Z,1.75
2023-04-29T05:27:55.924Z,1.73
2023-04-29T05:30:25.757Z,1.25
2023-04-29T05:32:52.783Z,1.40
2023-04-29T05:35:21.290Z,1.88
2023-04-29T05:37:47.990Z,1.92
2023-04-29T05:40:36.762Z,1.38
2023-04-29T05:43:23.844Z,1.90
2023-04-29T05:45:52.170Z,1.30
2023-04-29T05:48:18.860Z,0.80
2023-04-29T05:50:45.783Z,1.10
2023-04-29T05:53:12.792Z,1.20
2023-04-29T05:55:44.581Z,0.95
2023-04-29T05:58:12.056Z,1.17
2023-04-29T06:00:39.388Z,1.20
2023-04-29T06:03:12.780Z,1.05
2023-04-29T06:05:41.068Z,0.80
2023-04-29T06:08:27.244Z,0.90
2023-04-29T06:11:02.101Z,0.93
2023-04-29T06:13:30.214Z,0.80
2023-04-29T06:15:57.041Z,1.08
2023-04-29T06:18:25.920Z,1.08
2023-04-29T06:20:55.000Z,1.10
2023-04-29T06:23:22.810Z,0.80
2023-04-29T06:25:51.685Z,0.88
2023-04-29T06:28:20.199Z,1.20
2023-04-29T06:30:47.006Z,0.80
2023-04-29T06:33:14.634Z,0.80
2023-04-29T06:35:41.981Z,0.98
2023-04-29T06:38:43.290Z,1.30
2023-04-29T06:41:13.133Z,0.70
2023-04-29T06:44:01.651Z,0.52
2023-04-29T06:46:55.634Z,0.95
2023-04-29T06:49:53.116Z,1.00
2023-04-29T06:52:30.010Z,0.90
2023-04-29T06:54:56.802Z,1.23
2023-04-29T06:57:23.561Z,0.75
2023-04-29T06:59:50.412Z,1.75
2023-04-29T07:02:17.424Z,1.00
2023-04-29T07:04:49.694Z,0.90
2023-04-29T07:07:17.173Z,0.68
2023-04-29T07:09:43.906Z,0.90
2023-04-29T07:12:11.348Z,1.08
2023-04-29T07:14:38.401Z,0.88
2023-04-29T07:17:05.192Z,1.05
2023-04-29T07:19:31.934Z,0.70
2023-04-29T07:21:58.627Z,0.60
2023-04-29T07:24:26.523Z,0.93
2023-04-29T07:26:53.489Z,0.50
2023-04-29T07:29:20.438Z,0.95
2023-04-29T07:31:47.237Z,0.90
2023-04-29T07:34:30.710Z,0.80
2023-04-29T07:36:57.709Z,0.90
2023-04-29T07:39:24.770Z,0.90
2023-04-29T07:42:00.189Z,0.98
2023-04-29T07:44:58.904Z,0.73
2023-04-29T07:47:30.362Z,0.80
2023-04-29T07:50:01.932Z,0.98
2023-04-29T07:52:31.066Z,0.82
2023-04-29T07:55:04.483Z,0.95
2023-04-29T07:57:37.228Z,1.27
2023-04-29T08:00:06.729Z,0.85
2023-04-29T08:02:43.050Z,0.90
2023-04-29T08:05:12.617Z,1.02
2023-04-29T08:07:39.507Z,1.00
2023-04-29T08:10:09.804Z,0.90
2023-04-29T08:12:39.473Z,0.80
2023-04-29T08:15:09.760Z,0.65
2023-04-29T08:17:39.103Z,0.73
2023-04-29T08:20:08.239Z,0.90
2023-04-29T08:22:34.902Z,0.73
2023-04-29T08:25:05.835Z,0.90
2023-04-29T08:27:34.947Z,0.90
2023-04-29T08:30:01.783Z,1.10
2023-04-29T08:32:28.495Z,1.10
2023-04-29T08:34:55.367Z,0.63
2023-04-29T08:37:23.619Z,0.90
2023-04-29T08:39:50.306Z,1.40
2023-04-29T08:42:28.795Z,0.93
2023-04-29T08:44:56.299Z,0.90
2023-04-29T08:47:24.000Z,0.70
2023-04-29T08:49:50.646Z,1.10
2023-04-29T08:52:17.245Z,1.10
2023-04-29T08:54:44.250Z,1.20
2023-04-29T08:57:12.269Z,0.90
2023-04-29T08:59:39.036Z,0.60
2023-04-29T09:02:26.433Z,1.10
2023-04-29T09:05:11.720Z,1.00
2023-04-29T09:07:39.847Z,0.70
2023-04-29T09:10:10.769Z,0.82
2023-04-29T09:12:39.898Z,0.73
2023-04-29T09:15:07.249Z,1.30
2023-04-29T09:17:45.987Z,0.70
2023-04-29T09:20:21.570Z,0.95
2023-04-29T09:22:53.649Z,0.70
2023-04-29T09:25:21.122Z,0.90
2023-04-29T09:27:47.867Z,1.25
2023-04-29T09:30:16.590Z,0.90
2023-04-29T09:32:45.079Z,0.90
2023-04-29T09:35:25.450Z,0.88
2023-04-29T09:37:56.062Z,0.80
2023-04-29T09:40:43.365Z,1.20
2023-04-29T09:43:16.326Z,0.75
2023-04-29T09:45:45.703Z,1.30
2023-04-29T09:48:13.851Z,1.20
2023-04-29T09:50:43.570Z,0.70
2023-04-29T09:53:11.834Z,1.20
2023-04-29T09:55:53.425Z,1.30
2023-04-29T09:58:37.295Z,1.10
2023-04-29T10:01:05.536Z,1.10
2023-04-29T10:03:39.017Z,1.00
2023-04-29T10:06:07.365Z,0.70
2023-04-29T10:08:35.071Z,0.93
2023-04-29T10:11:03.481Z,0.95
2023-04-29T10:13:30.677Z,0.82
2023-04-29T10:16:26.395Z,1.05
2023-04-29T10:18:55.838Z,0.70
2023-04-29T10:21:31.066Z,0.85
2023-04-29T10:23:59.377Z,0.90
2023-04-29T10:26:30.111Z,0.93
2023-04-29T10:28:57.091Z,1.00
2023-04-29T10:31:27.876Z,1.30
2023-04-29T10:33:59.127Z,1.15
2023-04-29T10:36:30.659Z,1.20
2023-04-29T10:39:00.959Z,0.90
2023-04-29T10:41:36.369Z,1.00
2023-04-29T10:44:04.699Z,0.88
2023-04-29T10:46:31.567Z,1.08
2023-04-29T10:49:03.596Z,0.80
2023-04-29T10:51:46.013Z,0.80
2023-04-29T10:54:16.885Z,0.90
2023-04-29T10:56:48.186Z,1.00
2023-04-29T10:59:17.164Z,0.90
2023-04-29T11:01:51.924Z,0.90
2023-04-29T11:04:20.752Z,1.02
2023-04-29T11:06:56.161Z,0.80
2023-04-29T11:09:28.143Z,0.93
2023-04-29T11:12:03.143Z,1.00
2023-04-29T11:14:44.470Z,1.15
2023-04-29T11:17:14.069Z,0.90
2023-04-29T11:19:41.809Z,1.02
2023-04-29T11:22:33.930Z,0.93
2023-04-29T11:25:05.908Z,0.82
2023-04-29T11:27:37.331Z,0.70
2023-04-29T11:30:06.834Z,0.98
2023-04-29T11:32:40.035Z,0.80
2023-04-29T11:35:15.223Z,0.95
2023-04-29T11:40:12.934Z,1.05
2023-04-29T11:42:48.047Z,1.00
2023-04-29T11:47:46.709Z,1.00
2023-04-29T11:50:16.761Z,0.50
2023-04-29T11:52:44.812Z,0.90
2023-04-29T11:55:15.422Z,0.85
2023-04-29T11:57:42.175Z,0.80
2023-04-29T12:00:13.769Z,0.80
2023-04-29T12:02:44.998Z,1.10
2023-04-29T12:05:13.269Z,0.82
2023-04-29T12:07:40.511Z,1.05
2023-04-29T12:10:11.411Z,0.90
2023-04-29T12:12:40.978Z,0.82
2023-04-29T12:15:10.126Z,0.70
2023-04-29T12:17:37.480Z,1.00
2023-04-29T12:20:04.712Z,1.13
2023-04-29T12:22:32.229Z,0.88
2023-04-29T12:24:58.906Z,1.05
2023-04-29T12:27:26.661Z,1.00
2023-04-29T12:29:53.387Z,1.00
2023-04-29T12:32:24.674Z,0.90
2023-04-29T12:34:55.361Z,0.95
2023-04-29T12:37:23.726Z,0.68
2023-04-29T12:39:51.028Z,0.63
2023-04-29T12:42:17.738Z,0.60
2023-04-29T12:44:48.442Z,0.80
2023-04-29T12:47:16.351Z,1.00
2023-04-29T12:49:45.033Z,1.00
2023-04-29T12:52:13.399Z,0.88
2023-04-29T12:54:42.645Z,0.70
2023-04-29T12:57:10.948Z,0.88
2023-04-29T12:59:38.398Z,1.00
2023-04-29T13:02:05.317Z,0.80
2023-04-29T13:04:32.466Z,0.90
2023-04-29T13:07:04.273Z,0.95
2023-04-29T13:09:31.411Z,1.20
2023-04-29T13:11:59.552Z,1.27
2023-04-29T13:14:26.959Z,1.10
2023-04-29T13:16:53.934Z,1.10
2023-04-29T13:19:36.298Z,1.00
2023-04-29T13:24:35.290Z,0.73
2023-04-29T13:27:03.149Z,0.80
2023-04-29T13:29:29.890Z,1.17
2023-04-29T13:31:57.100Z,0.82
2023-04-29T13:34:34.218Z,0.90
2023-04-29T13:37:14.629Z,1.52
2023-04-29T13:39:45.563Z,0.88
2023-04-29T13:42:15.461Z,1.10
2023-04-29T13:44:52.575Z,1.20
2023-04-29T13:47:31.735Z,1.13
2023-04-29T13:50:39.776Z,1.50
2023-04-29T13:56:01.650Z,0.90
2023-04-29T13:58:43.547Z,1.05
2023-04-29T14:01:16.984Z,1.00
2023-04-29T14:03:35.960Z,0.90
2023-04-29T14:06:05.654Z,1.23
2023-04-29T14:08:32.408Z,1.77
2023-04-29T14:10:59.091Z,0.90
2023-04-29T14:13:25.770Z,0.85
2023-04-29T14:15:54.328Z,1.02
2023-04-29T14:18:21.268Z,1.08
2023-04-29T14:20:47.900Z,1.00
2023-04-29T14:23:14.485Z,1.48
2023-04-29T14:25:41.222Z,1.70
2023-04-29T14:28:08.763Z,0.95
2023-04-29T14:30:35.533Z,1.15
2023-04-29T14:33:02.221Z,1.05
2023-04-29T14:35:28.984Z,1.30
2023-04-29T14:37:55.927Z,1.27
2023-04-29T14:40:22.667Z,1.23
2023-04-29T14:42:49.677Z,0.85
2023-04-29T14:45:17.421Z,1.10
2023-04-29T14:47:44.309Z,0.98
2023-04-29T14:50:11.015Z,1.27
2023-04-29T14:52:37.709Z,1.33
2023-04-29T14:55:04.642Z,1.00
2023-04-29T14:57:31.322Z,1.23
2023-04-29T14:59:58.032Z,1.13
2023-04-29T15:02:24.830Z,1.10
2023-04-29T15:04:51.497Z,1.23
2023-04-29T15:07:18.707Z,0.75
2023-04-29T15:09:45.892Z,1.00
2023-04-29T15:12:14.375Z,0.90
2023-04-29T15:14:40.981Z,1.05
2023-04-29T15:17:07.617Z,1.10
2023-04-29T15:19:35.476Z,1.42
2023-04-29T15:22:02.199Z,0.75
2023-04-29T15:24:28.943Z,1.10
2023-04-29T15:26:55.872Z,0.82
2023-04-29T15:29:22.486Z,0.73
2023-04-29T15:31:49.399Z,0.65
2023-04-29T15:34:16.170Z,1.10
2023-04-29T15:36:42.874Z,0.93
2023-04-29T15:39:12.170Z,0.65
2023-04-29T15:41:39.231Z,0.90
2023-04-29T15:44:06.652Z,0.75
2023-04-29T15:46:33.407Z,1.20
2023-04-29T15:49:01.016Z,0.70
2023-04-29T15:51:27.676Z,1.33
2023-04-29T15:53:54.701Z,1.20
2023-04-29T15:56:21.767Z,1.10
2023-04-29T15:58:48.501Z,1.00
2023-04-29T16:01:15.273Z,0.93
2023-04-29T16:03:42.328Z,1.00
2023-04-29T16:06:09.908Z,0.77
2023-04-29T16:08:36.740Z,1.00
2023-04-29T16:11:03.508Z,1.00
2023-04-29T16:13:30.212Z,1.10
2023-04-29T16:15:57.169Z,1.30
2023-04-29T16:18:23.903Z,1.17
2023-04-29T16:20:51.473Z,1.23
2023-04-29T16:23:18.232Z,1.15
2023-04-29T16:25:45.058Z,0.80
2023-04-29T16:28:11.883Z,1.33
2023-04-29T16:30:38.681Z,1.35
2023-04-29T16:33:06.798Z,1.02
2023-04-29T16:35:34.213Z,1.00
2023-04-29T16:38:01.063Z,1.48
2023-04-29T16:40:28.519Z,1.30
2023-04-29T16:42:56.998Z,1.10
2023-04-29T16:45:25.412Z,0.80
2023-04-29T16:47:55.570Z,1.05
2023-04-29T16:50:24.771Z,1.20
2023-04-29T16:52:51.742Z,1.08
2023-04-29T16:55:24.942Z,1.02
2023-04-29T16:58:08.445Z,1.42
2023-04-29T17:00:35.401Z,1.25
2023-04-29T17:03:02.940Z,1.73
2023-04-29T17:05:30.032Z,1.15
2023-04-29T17:07:57.099Z,1.58
2023-04-29T17:10:37.526Z,1.50
2023-04-29T17:13:09.934Z,0.98
2023-04-29T17:15:36.798Z,1.58
2023-04-29T17:18:03.639Z,1.55
2023-04-29T17:20:30.381Z,1.73
2023-04-29T17:22:57.047Z,1.40
2023-04-29T17:25:23.874Z,1.17
2023-04-29T17:27:50.793Z,1.23
2023-04-29T17:30:17.683Z,1.25
2023-04-29T17:32:44.675Z,1.25
2023-04-29T17:35:11.766Z,4.35
2023-04-29T17:37:38.627Z,1.23
2023-04-29T17:40:06.258Z,1.33
2023-04-29T17:42:33.145Z,1.60
2023-04-29T17:45:00.053Z,1.25
2023-04-29T17:47:29.208Z,1.00
2023-04-29T17:50:00.330Z,1.65
2023-04-29T17:52:28.935Z,1.13
2023-04-29T17:54:58.490Z,1.70
2023-04-29T17:57:32.112Z,1.33
2023-04-29T17:59:59.059Z,1.33
2023-04-29T18:02:28.884Z,1.17
2023-04-29T18:04:58.465Z,1.20
2023-04-29T18:07:25.156Z,1.60
2023-04-29T18:09:52.177Z,1.30
2023-04-29T18:12:18.999Z,1.33
2023-04-29T18:14:46.607Z,1.30
2023-04-29T18:17:13.220Z,2.22
2023-04-29T18:19:39.862Z,1.73
2023-04-29T18:22:07.537Z,1.58
2023-04-29T18:24:34.161Z,1.63
2023-04-29T18:27:03.366Z,1.52
2023-04-29T18:29:29.993Z,1.73
2023-04-29T18:31:56.712Z,1.35
2023-04-29T18:34:23.376Z,1.80
2023-04-29T18:36:54.899Z,1.75
2023-04-29T18:39:21.728Z,1.98
2023-04-29T18:41:48.411Z,1.88
2023-04-29T18:44:20.958Z,1.90
2023-04-29T18:46:49.726Z,1.98
2023-04-29T18:49:17.883Z,1.90
2023-04-29T18:51:47.845Z,1.63
2023-04-29T18:54:16.572Z,1.73
2023-04-29T18:56:46.515Z,1.83
2023-04-29T18:59:19.295Z,1.60
2023-04-29T19:01:49.248Z,1.48
2023-04-29T19:04:17.789Z,1.70
2023-04-29T19:06:46.763Z,1.75
2023-04-29T19:09:14.382Z,1.90
2023-04-29T19:11:41.291Z,1.92
2023-04-29T19:14:08.020Z,1.80
2023-04-29T19:16:36.887Z,2.28
2023-04-29T19:19:04.320Z,2.15
2023-04-29T19:21:33.073Z,2.15
2023-04-29T19:23:59.909Z,2.50
2023-04-29T19:26:26.596Z,2.58
2023-04-29T19:28:53.273Z,2.90
2023-04-29T19:31:19.961Z,2.70
2023-04-29T19:33:46.845Z,2.63
2023-04-29T19:36:14.284Z,2.58
2023-04-29T19:38:41.054Z,2.20
2023-04-29T19:41:07.898Z,2.70
2023-04-29T19:43:34.763Z,2.60
2023-04-29T19:46:01.450Z,3.30
2023-04-29T19:48:28.271Z,3.17
2023-04-29T19:50:54.972Z,3.13
2023-04-29T19:53:21.640Z,3.53
2023-04-29T19:55:50.593Z,3.53
2023-04-29T19:58:18.389Z,3.15
2023-04-29T20:00:45.058Z,3.65
2023-04-29T20:03:15.058Z,3.55
2023-04-29T20:05:41.764Z,3.60
2023-04-29T20:08:08.390Z,3.50
2023-04-29T20:10:37.298Z,4.40
2023-04-29T20:13:03.978Z,4.45
2023-04-29T20:15:30.795Z,3.78
2023-04-29T20:18:00.076Z,4.00
2023-04-29T20:20:26.895Z,3.25
2023-04-29T20:22:58.012Z,3.50
2023-04-29T20:25:25.668Z,3.83
2023-04-29T20:27:53.673Z,3.45
2023-04-29T20:30:20.823Z,3.45
2023-04-29T20:32:49.350Z,3.15
2023-04-29T20:35:16.555Z,3.08
2023-04-29T20:37:45.677Z,3.42
2023-04-29T20:40:12.910Z,2.88
2023-04-29T20:42:40.361Z,3.15
2023-04-29T20:45:07.686Z,2.65
2023-04-29T20:47:35.488Z,3.08
2023-04-29T20:50:04.649Z,2.80
2023-04-29T20:52:31.430Z,2.72
2023-04-29T20:54:58.779Z,2.80
2023-04-29T20:57:25.806Z,2.67
2023-04-29T20:59:52.661Z,3.05
2023-04-29T21:02:19.593Z,2.72
2023-04-29T21:04:46.397Z,2.50
2023-04-29T21:07:13.313Z,2.95
2023-04-29T21:09:39.967Z,2.60
2023-04-29T21:12:06.639Z,2.90
2023-04-29T21:14:33.327Z,2.40
2023-04-29T21:17:00.142Z,2.75
2023-04-29T21:19:27.040Z,2.78
2023-04-29T21:21:53.649Z,2.60
2023-04-29T21:24:20.290Z,3.80
2023-04-29T21:26:50.448Z,2.90
2023-04-29T21:29:17.071Z,2.78
2023-04-29T21:31:43.941Z,3.00
2023-04-29T21:34:10.689Z,2.60
2023-04-29T21:36:37.327Z,2.90
2023-04-29T21:39:04.343Z,2.70
2023-04-29T21:41:37.271Z,3.00
2023-04-29T21:44:05.927Z,3.03
2023-04-29T21:46:33.962Z,3.00
2023-04-29T21:49:01.298Z,3.40
2023-04-29T21:51:29.362Z,2.80
2023-04-29T21:53:55.997Z,2.83
2023-04-29T21:56:24.551Z,2.80
2023-04-29T21:58:51.507Z,2.85
2023-04-29T22:01:39.885Z,3.40
2023-04-29T22:04:06.887Z,2.50
2023-04-29T22:06:34.643Z,3.10
2023-04-29T22:09:01.774Z,3.80
2023-04-29T22:11:28.857Z,4.07
2023-04-29T22:13:55.727Z,4.05
2023-04-29T22:16:23.543Z,3.97
2023-04-29T22:18:51.317Z,2.97
2023-04-29T22:21:18.465Z,3.30
2023-04-29T22:23:45.671Z,3.60
2023-04-29T22:26:12.384Z,2.60
2023-04-29T22:28:39.258Z,3.05
2023-04-29T22:31:06.548Z,2.80
2023-04-29T22:33:34.630Z,3.22
2023-04-29T22:36:01.448Z,2.40
2023-04-29T22:38:29.374Z,3.53
2023-04-29T22:40:56.038Z,2.50
2023-04-29T22:43:22.694Z,2.63
2023-04-29T22:45:56.772Z,3.13
2023-04-29T22:48:25.852Z,2.92
2023-04-29T22:50:55.565Z,3.13
2023-04-29T22:53:22.444Z,2.83
2023-04-29T22:55:53.781Z,3.15
2023-04-29T22:58:21.896Z,2.88
2023-04-29T23:00:56.837Z,3.45
2023-04-29T23:03:23.972Z,2.97
2023-04-29T23:05:50.757Z,2.80
2023-04-29T23:08:17.495Z,3.40
2023-04-29T23:10:50.915Z,3.58
2023-04-29T23:13:17.788Z,3.22
2023-04-29T23:15:45.377Z,3.60
2023-04-29T23:18:12.334Z,2.95
2023-04-29T23:20:39.140Z,3.13
2023-04-29T23:23:06.003Z,3.05
2023-04-29T23:25:32.696Z,3.50
2023-04-29T23:27:59.434Z,3.55
2023-04-29T23:30:26.205Z,3.40
2023-04-29T23:32:52.846Z,3.00
2023-04-29T23:35:19.485Z,3.22
2023-04-29T23:37:46.174Z,3.22
2023-04-29T23:40:12.820Z,2.90
2023-04-29T23:42:39.524Z,3.47
2023-04-29T23:45:06.800Z,3.35
2023-04-29T23:47:36.357Z,3.42
2023-04-29T23:50:05.789Z,3.53
2023-04-29T23:52:33.875Z,2.97
2023-04-29T23:55:02.349Z,3.40
2023-04-29T23:57:29.178Z,3.13
2023-04-29T23:59:56.632Z,3.40
